createdAt,value
2023-01-29T00:06:44.760Z,48.01
2023-01-29T00:16:53.704Z,48.39
2023-01-29T00:27:03.028Z,48.28
2023-01-29T00:37:12.068Z,48.69
2023-01-29T00:47:22.659Z,49.04
2023-01-29T00:57:32.884Z,49.12
2023-01-29T01:07:42.275Z,49.15
2023-01-29T01:17:50.801Z,49.36
2023-01-29T01:28:00.308Z,49.56
2023-01-29T01:38:10.036Z,49.46
2023-01-29T01:48:19.704Z,50.04
2023-01-29T01:58:30.173Z,51.31
2023-01-29T02:08:39.756Z,51.41
2023-01-29T02:18:49.408Z,51.42
2023-01-29T02:28:59.515Z,51.44
2023-01-29T02:39:08.502Z,51.21
2023-01-29T02:49:18.579Z,51.27
2023-01-29T02:59:28.625Z,51.12
2023-01-29T03:09:38.485Z,51.12
2023-01-29T03:19:48.078Z,51.27
2023-01-29T03:29:58.043Z,51.18
2023-01-29T03:40:08.391Z,51.10
2023-01-29T03:50:18.632Z,51.16
2023-01-29T04:00:28.166Z,51.11
2023-01-29T04:10:37.668Z,51.12
2023-01-29T04:20:47.484Z,51.12
2023-01-29T04:30:58.093Z,51.04
2023-01-29T04:41:06.800Z,51.14
2023-01-29T04:51:15.167Z,51.02
2023-01-29T05:01:26.886Z,50.89
2023-01-29T05:11:37.532Z,50.85
2023-01-29T05:21:46.415Z,51.08
2023-01-29T05:31:55.673Z,51.17
2023-01-29T05:42:06.120Z,50.83
2023-01-29T05:52:15.233Z,50.96
2023-01-29T06:02:25.177Z,50.92
2023-01-29T06:12:34.387Z,50.97
2023-01-29T06:22:43.809Z,50.88
2023-01-29T06:32:52.962Z,50.42
2023-01-29T06:43:02.929Z,50.14
2023-01-29T06:53:12.813Z,49.96
2023-01-29T07:03:22.793Z,50.13
2023-01-29T07:13:31.989Z,50.24
2023-01-29T07:23:41.587Z,50.57
2023-01-29T07:33:51.027Z,50.45
2023-01-29T07:44:00.730Z,50.35
2023-01-29T07:54:10.329Z,51.00
2023-01-29T08:04:20.210Z,51.50
2023-01-29T08:14:29.968Z,51.33
2023-01-29T08:24:53.328Z,51.78
2023-01-29T08:34:53.997Z,51.76
2023-01-29T08:45:03.899Z,51.90
2023-01-29T08:55:13.896Z,51.81
2023-01-29T09:05:23.346Z,52.36
2023-01-29T09:15:32.618Z,52.42
2023-01-29T09:25:41.993Z,52.81
2023-01-29T09:35:51.659Z,52.25
2023-01-29T09:46:01.540Z,51.89
2023-01-29T09:56:11.501Z,51.82
2023-01-29T10:06:21.141Z,47.51
2023-01-29T10:16:30.423Z,49.53
2023-01-29T10:26:39.435Z,50.22
2023-01-29T10:36:49.066Z,50.11
2023-01-29T10:46:58.371Z,50.28
2023-01-29T10:57:08.028Z,49.92
2023-01-29T11:07:17.651Z,48.47
2023-01-29T11:17:27.422Z,48.66
2023-01-29T11:27:37.964Z,48.42
2023-01-29T11:37:47.833Z,48.28
2023-01-29T11:47:58.280Z,48.43
2023-01-29T11:58:07.755Z,48.11
2023-01-29T12:08:17.648Z,46.65
2023-01-29T12:18:27.378Z,45.77
2023-01-29T12:28:37.298Z,45.58
2023-01-29T12:38:46.029Z,46.03
2023-01-29T12:48:55.011Z,45.13
2023-01-29T12:59:05.105Z,44.33
2023-01-29T13:09:14.956Z,43.86
2023-01-29T13:19:25.736Z,43.17
2023-01-29T13:29:35.008Z,43.15
2023-01-29T13:39:44.716Z,43.62
2023-01-29T13:49:53.196Z,43.70
2023-01-29T14:00:02.418Z,42.15
2023-01-29T14:10:13.760Z,42.29
2023-01-29T14:20:25.741Z,42.59
2023-01-29T14:30:37.750Z,43.33
2023-01-29T14:40:46.712Z,43.24
2023-01-29T14:50:55.502Z,43.08
2023-01-29T15:01:04.063Z,42.51
2023-01-29T15:11:13.711Z,41.92
2023-01-29T15:21:23.170Z,41.67
2023-01-29T15:31:32.695Z,41.13
2023-01-29T15:41:42.492Z,41.50
2023-01-29T15:51:52.135Z,41.31
2023-01-29T16:02:01.224Z,41.37
2023-01-29T16:12:10.961Z,40.99
2023-01-29T16:22:21.002Z,41.25
2023-01-29T16:32:30.744Z,41.91
2023-01-29T16:42:40.453Z,42.63
2023-01-29T16:52:49.836Z,43.36
2023-01-29T17:02:59.322Z,44.03
2023-01-29T17:13:09.225Z,45.36
2023-01-29T17:23:19.297Z,46.26
2023-01-29T17:33:29.102Z,45.85
2023-01-29T17:43:37.739Z,46.19
2023-01-29T17:53:47.321Z,46.77
2023-01-29T18:03:57.311Z,46.99
2023-01-29T18:14:13.591Z,47.25
2023-01-29T18:24:22.273Z,47.37
2023-01-29T18:34:31.654Z,48.71
2023-01-29T18:44:42.198Z,48.58
2023-01-29T18:54:52.717Z,47.81
2023-01-29T19:05:03.417Z,47.83
2023-01-29T19:15:12.294Z,48.20
2023-01-29T19:25:21.999Z,48.79
2023-01-29T19:35:32.486Z,48.77
2023-01-29T19:45:49.479Z,48.89
2023-01-29T19:55:55.730Z,48.68
2023-01-29T20:06:06.294Z,48.77
2023-01-29T20:16:14.671Z,48.33
2023-01-29T20:26:24.460Z,48.73
2023-01-29T20:36:34.173Z,48.85
2023-01-29T20:46:43.351Z,48.90
2023-01-29T20:56:52.757Z,48.62
2023-01-29T21:07:03.267Z,48.42
2023-01-29T21:17:13.313Z,48.07
2023-01-29T21:27:23.381Z,52.75
2023-01-29T21:37:33.726Z,52.72
2023-01-29T21:47:43.902Z,51.83
2023-01-29T21:57:53.259Z,51.27
2023-01-29T22:08:03.061Z,50.89
2023-01-29T22:18:12.667Z,50.66
2023-01-29T22:28:22.681Z,52.30
2023-01-29T22:38:32.587Z,52.35
2023-01-29T22:48:41.631Z,52.13
2023-01-29T22:58:51.301Z,51.96
2023-01-29T23:09:01.073Z,51.84
2023-01-29T23:19:10.895Z,51.75
2023-01-29T23:29:20.427Z,51.76
2023-01-29T23:39:30.653Z,51.68
2023-01-29T23:49:41.135Z,51.63
2023-01-29T23:59:50.759Z,51.59
